»·PEaware :: UAL186 KSAN-KLAS

UAL186 :: KSAN-KLAS

FLIGHT INFORMATION

Flight Status: Arrived
Operator:
United Airlines
More flights by this operator :: More flights under this callsign
Pilot: Josh G. (4619)
Aircraft: BOEING 737-800
(B738)
More flights by this aircraft type
Origin: KSAN San Diego Intl-Lindbergh
United States
Destination: KLAS McCarran Intl
United States
More flights between these airports :: More routes between these airports
Route: PADRZ2 CHKNN SEBBY YELAH MISEN KEPEC6
File this flight plan on PilotEdge
Remarks: Student Pilot
Altitude:
(Current/Filed)
27,000ft
Speed:
(Current/Filed)
450kts
Departed: 12-Feb-20 10:11 PM
Arrived: 12-Feb-20 11:01 PM
Distance/Time
Traveled:
227nm/0:50
Distance/Time
To Go:
Arrived

Flight Plot

Page will automatically refresh every two minutes.

Flight plan parsing failed; only flown route is shown


Map Options




Map Legend


Flown Route
Filed Route
Departure Airport
Arrival Airport
Navaid (VOR, NDB)
Fix

Horizontal Profiles

Position Reports

Time Latitude Longitude Heading Altitude Ground
Speed
12-Feb-20 21:39 32.733444 -117.195967 199 21ft 0kts
12-Feb-20 21:40 32.733444 -117.195967 199 21ft 0kts
12-Feb-20 21:41 32.733444 -117.195967 199 21ft 0kts
12-Feb-20 21:42 32.733444 -117.195967 199 21ft 0kts
12-Feb-20 21:43 32.733444 -117.195967 199 21ft 0kts
12-Feb-20 21:44 32.733444 -117.195967 199 21ft 0kts
12-Feb-20 21:45 32.733444 -117.195967 199 21ft 0kts
12-Feb-20 21:46 32.733444 -117.195967 199 21ft 0kts
12-Feb-20 21:47 32.733444 -117.195967 199 21ft 0kts
12-Feb-20 21:48 32.733444 -117.195967 199 21ft 0kts
12-Feb-20 21:49 32.733444 -117.195967 199 21ft 0kts
12-Feb-20 21:50 32.733444 -117.195967 199 21ft 0kts
12-Feb-20 21:51 32.733445 -117.195966 200 21ft 0kts
12-Feb-20 21:52 32.733445 -117.195966 200 21ft 0kts
12-Feb-20 21:53 32.733927 -117.196008 128 21ft 2kts
12-Feb-20 21:54 32.734003 -117.196208 105 21ft 0kts
12-Feb-20 21:55 32.734003 -117.196207 105 21ft 0kts
12-Feb-20 21:56 32.734003 -117.196207 105 21ft 0kts
12-Feb-20 21:57 32.734003 -117.196207 105 21ft 0kts
12-Feb-20 21:58 32.734003 -117.196207 105 21ft 0kts
12-Feb-20 21:59 32.734003 -117.196207 105 21ft 0kts
12-Feb-20 22:00 32.733875 -117.195247 105 21ft 13kts
12-Feb-20 22:01 32.732450 -117.189345 105 21ft 20kts
12-Feb-20 22:02 32.730822 -117.182745 102 20ft 21kts
12-Feb-20 22:03 32.729310 -117.177222 64 20ft 0kts
12-Feb-20 22:04 32.729310 -117.177222 64 20ft 0kts
12-Feb-20 22:05 32.729310 -117.177221 64 20ft 0kts
12-Feb-20 22:06 32.729310 -117.177221 64 20ft 0kts
12-Feb-20 22:07 32.729310 -117.177221 64 20ft 0kts
12-Feb-20 22:08 32.729310 -117.177221 64 20ft 0kts
12-Feb-20 22:09 32.729310 -117.177221 64 20ft 0kts
12-Feb-20 22:10 32.730615 -117.177578 286 22ft 41kts
12-Feb-20 22:11 32.742302 -117.222235 299 1473ft 190kts
12-Feb-20 22:12 32.779098 -117.284607 305 3804ft 256kts
12-Feb-20 22:13 32.823116 -117.355401 307 7270ft 273kts
12-Feb-20 22:14 32.869672 -117.427303 308 10486ft 286kts
12-Feb-20 22:15 32.920461 -117.506118 308 13263ft 307kts
12-Feb-20 22:16 32.973299 -117.588345 308 16002ft 320kts
12-Feb-20 22:17 33.027992 -117.673703 307 18521ft 331kts
12-Feb-20 22:18 33.090174 -117.757684 319 20771ft 344kts
12-Feb-20 22:19 33.167342 -117.829136 334 22832ft 357kts
12-Feb-20 22:20 33.267153 -117.840195 1 24720ft 373kts
12-Feb-20 22:21 33.371793 -117.832264 1 26484ft 382kts
12-Feb-20 22:22 33.479919 -117.824041 1 27162ft 403kts
12-Feb-20 22:23 33.595522 -117.815239 1 27158ft 428kts
12-Feb-20 22:24 33.714942 -117.805914 1 27155ft 430kts
12-Feb-20 22:25 33.834617 -117.796718 1 27154ft 431kts
12-Feb-20 22:26 33.954205 -117.787489 1 27153ft 431kts
12-Feb-20 22:27 34.072289 -117.763892 12 27152ft 434kts
12-Feb-20 22:28 34.176959 -117.692504 45 27149ft 446kts
12-Feb-20 22:29 34.231353 -117.557018 59 27133ft 452kts
12-Feb-20 22:30 34.311773 -117.444172 45 27140ft 446kts
12-Feb-20 22:31 34.389643 -117.331618 47 27128ft 446kts
12-Feb-20 22:32 34.468431 -117.214855 47 27127ft 446kts
12-Feb-20 22:33 34.546644 -117.099007 47 27096ft 446kts
12-Feb-20 22:34 34.624420 -116.983966 47 27025ft 444kts
12-Feb-20 22:35 34.702671 -116.868346 47 27047ft 442kts
12-Feb-20 22:36 34.780683 -116.753234 47 27034ft 442kts
12-Feb-20 22:37 34.860962 -116.638762 38 27013ft 452kts
12-Feb-20 22:38 34.960072 -116.541871 35 27002ft 459kts
12-Feb-20 22:39 35.059635 -116.445315 35 25311ft 451kts
12-Feb-20 22:40 35.146282 -116.349555 43 24129ft 443kts
12-Feb-20 22:41 35.230671 -116.243331 43 24128ft 444kts
12-Feb-20 22:42 35.316656 -116.135149 43 24129ft 443kts
12-Feb-20 22:43 35.402406 -116.026924 43 21769ft 434kts
12-Feb-20 22:44 35.483424 -115.924306 43 19142ft 412kts
12-Feb-20 22:45 35.561413 -115.825279 43 16682ft 398kts
12-Feb-20 22:46 35.636323 -115.729885 43 14343ft 374kts
12-Feb-20 22:47 35.704700 -115.642530 43 12989ft 324kts
12-Feb-20 22:48 35.768634 -115.579989 13 13013ft 287kts
12-Feb-20 22:49 35.847503 -115.570853 2 13008ft 285kts
12-Feb-20 22:50 35.926684 -115.565576 8 12994ft 284kts
12-Feb-20 22:52 35.988042 -115.506957 59 12993ft 293kts
12-Feb-20 22:53 36.017097 -115.417240 63 12349ft 286kts
12-Feb-20 22:54 36.028435 -115.323414 93 10390ft 308kts
12-Feb-20 22:55 36.019823 -115.218411 93 8961ft 283kts
12-Feb-20 22:56 36.036305 -115.127376 31 6209ft 293kts
12-Feb-20 22:57 36.104012 -115.093185 22 5154ft 242kts
12-Feb-20 22:58 36.145294 -115.111758 256 3566ft 192kts
12-Feb-20 22:59 36.110856 -115.146489 206 2434ft 149kts
12-Feb-20 23:00 36.083004 -115.162487 205 2119ft 44kts
12-Feb-20 23:01 36.078020 -115.162779 89 2119ft 19kts
12-Feb-20 23:02 36.078014 -115.154655 90 2119ft 27kts
12-Feb-20 23:03 36.078685 -115.149968 95 2119ft 14kts
12-Feb-20 23:04 36.076407 -115.112877 127 3006ft 161kts
12-Feb-20 23:05 36.043011 -115.140224 287 4138ft 253kts
12-Feb-20 23:06 36.109697 -115.147825 55 4567ft 271kts
12-Feb-20 23:07 36.095981 -115.159168 285 2822ft 286kts
12-Feb-20 23:08 36.147728 -115.143333 124 3984ft 235kts
12-Feb-20 23:09 36.116004 -115.121451 171 4726ft 249kts
12-Feb-20 23:09 36.116004 -115.121451 171 4726ft 249kts
12-Feb-20 23:11 36.059266 -115.135852 209 4724ft 228kts
12-Feb-20 23:12 36.068185 -115.181691 43 3125ft 179kts
12-Feb-20 23:12 36.073656 -115.133958 90 2120ft 144kts
12-Feb-20 23:14 36.090739 -115.077190 9 4028ft 190kts
12-Feb-20 23:14 36.134723 -115.090349 307 4316ft 212kts
12-Feb-20 23:15 36.122079 -115.138414 196 3161ft 182kts

Navigation Log

Ident Type
Flight plan parsing failed, navigation log unavailable